sensor_id;sensor_type;location;lat;lon;timestamp;temperature;humidity
20690;DHT22;10504;48.762;8.996;2022-08-19T00:01:29;19.50;99.90
20690;DHT22;10504;48.762;8.996;2022-08-19T00:03:59;19.50;99.90
20690;DHT22;10504;48.762;8.996;2022-08-19T00:06:27;19.50;99.90
20690;DHT22;10504;48.762;8.996;2022-08-19T00:08:54;19.50;99.90
20690;DHT22;10504;48.762;8.996;2022-08-19T00:11:20;19.50;99.90
20690;DHT22;10504;48.762;8.996;2022-08-19T00:13:47;19.50;99.90
20690;DHT22;10504;48.762;8.996;2022-08-19T00:16:15;19.50;99.90
20690;DHT22;10504;48.762;8.996;2022-08-19T00:18:41;19.50;99.90
20690;DHT22;10504;48.762;8.996;2022-08-19T00:21:06;19.50;99.90
20690;DHT22;10504;48.762;8.996;2022-08-19T00:23:33;19.50;99.90
20690;DHT22;10504;48.762;8.996;2022-08-19T00:26:00;19.50;99.90
20690;DHT22;10504;48.762;8.996;2022-08-19T00:28:26;19.50;99.90
20690;DHT22;10504;48.762;8.996;2022-08-19T00:30:52;19.50;99.90
20690;DHT22;10504;48.762;8.996;2022-08-19T00:33:18;19.40;99.90
20690;DHT22;10504;48.762;8.996;2022-08-19T00:35:44;19.40;99.90
20690;DHT22;10504;48.762;8.996;2022-08-19T00:38:10;19.40;99.90
20690;DHT22;10504;48.762;8.996;2022-08-19T00:40:36;19.40;99.90
20690;DHT22;10504;48.762;8.996;2022-08-19T00:43:08;19.40;99.90
20690;DHT22;10504;48.762;8.996;2022-08-19T00:45:34;19.40;99.90
20690;DHT22;10504;48.762;8.996;2022-08-19T00:48:01;19.40;99.90
20690;DHT22;10504;48.762;8.996;2022-08-19T00:50:32;19.40;99.90
20690;DHT22;10504;48.762;8.996;2022-08-19T00:52:58;19.30;99.90
20690;DHT22;10504;48.762;8.996;2022-08-19T00:55:26;19.30;99.90
20690;DHT22;10504;48.762;8.996;2022-08-19T00:58:10;19.30;99.90
20690;DHT22;10504;48.762;8.996;2022-08-19T01:00:37;19.40;99.90
20690;DHT22;10504;48.762;8.996;2022-08-19T01:03:08;19.40;99.90
20690;DHT22;10504;48.762;8.996;2022-08-19T01:05:34;19.30;99.90
20690;DHT22;10504;48.762;8.996;2022-08-19T01:08:02;19.30;99.90
20690;DHT22;10504;48.762;8.996;2022-08-19T01:10:32;19.30;99.90
20690;DHT22;10504;48.762;8.996;2022-08-19T01:12:59;19.30;99.90
20690;DHT22;10504;48.762;8.996;2022-08-19T01:15:31;19.30;99.90
20690;DHT22;10504;48.762;8.996;2022-08-19T01:18:00;19.30;99.90
20690;DHT22;10504;48.762;8.996;2022-08-19T01:20:26;19.30;99.90
20690;DHT22;10504;48.762;8.996;2022-08-19T01:22:55;19.30;99.90
20690;DHT22;10504;48.762;8.996;2022-08-19T01:25:39;19.30;99.90
20690;DHT22;10504;48.762;8.996;2022-08-19T01:28:06;19.30;99.90
20690;DHT22;10504;48.762;8.996;2022-08-19T01:30:34;19.30;99.90
20690;DHT22;10504;48.762;8.996;2022-08-19T01:33:01;19.30;99.90
20690;DHT22;10504;48.762;8.996;2022-08-19T01:35:29;19.30;99.90
20690;DHT22;10504;48.762;8.996;2022-08-19T01:38:01;19.30;99.90
20690;DHT22;10504;48.762;8.996;2022-08-19T01:40:32;19.30;99.90
20690;DHT22;10504;48.762;8.996;2022-08-19T01:43:00;19.30;99.90
20690;DHT22;10504;48.762;8.996;2022-08-19T01:45:28;19.30;99.90
20690;DHT22;10504;48.762;8.996;2022-08-19T01:47:55;19.30;99.90
20690;DHT22;10504;48.762;8.996;2022-08-19T01:50:21;19.30;99.90
20690;DHT22;10504;48.762;8.996;2022-08-19T01:52:47;19.30;99.90
20690;DHT22;10504;48.762;8.996;2022-08-19T01:55:17;19.30;99.90
20690;DHT22;10504;48.762;8.996;2022-08-19T01:57:46;19.20;99.90
20690;DHT22;10504;48.762;8.996;2022-08-19T02:00:15;19.20;99.90
20690;DHT22;10504;48.762;8.996;2022-08-19T02:02:41;19.20;99.90
20690;DHT22;10504;48.762;8.996;2022-08-19T02:05:08;19.10;99.90
20690;DHT22;10504;48.762;8.996;2022-08-19T02:07:35;19.10;99.90
20690;DHT22;10504;48.762;8.996;2022-08-19T02:10:05;19.00;99.90
20690;DHT22;10504;48.762;8.996;2022-08-19T02:12:32;19.00;99.90
20690;DHT22;10504;48.762;8.996;2022-08-19T02:14:59;18.90;99.90
20690;DHT22;10504;48.762;8.996;2022-08-19T02:17:26;18.90;99.90
20690;DHT22;10504;48.762;8.996;2022-08-19T02:19:54;18.80;99.90
20690;DHT22;10504;48.762;8.996;2022-08-19T02:22:20;18.80;99.90
20690;DHT22;10504;48.762;8.996;2022-08-19T02:24:46;18.80;99.90
20690;DHT22;10504;48.762;8.996;2022-08-19T02:27:13;18.80;99.90
20690;DHT22;10504;48.762;8.996;2022-08-19T02:29:39;18.80;99.90
20690;DHT22;10504;48.762;8.996;2022-08-19T02:32:05;18.90;99.90
20690;DHT22;10504;48.762;8.996;2022-08-19T02:34:30;18.80;99.90
20690;DHT22;10504;48.762;8.996;2022-08-19T02:36:56;18.80;99.90
20690;DHT22;10504;48.762;8.996;2022-08-19T02:39:22;18.90;99.90
20690;DHT22;10504;48.762;8.996;2022-08-19T02:41:47;18.90;99.90
20690;DHT22;10504;48.762;8.996;2022-08-19T02:44:14;18.90;99.90
20690;DHT22;10504;48.762;8.996;2022-08-19T02:46:40;18.90;99.90
20690;DHT22;10504;48.762;8.996;2022-08-19T02:49:06;18.90;99.90
20690;DHT22;10504;48.762;8.996;2022-08-19T02:51:41;18.90;99.90
20690;DHT22;10504;48.762;8.996;2022-08-19T02:54:08;18.90;99.90
20690;DHT22;10504;48.762;8.996;2022-08-19T02:56:36;18.90;99.90
20690;DHT22;10504;48.762;8.996;2022-08-19T02:59:03;18.80;99.90
20690;DHT22;10504;48.762;8.996;2022-08-19T03:01:33;18.80;99.90
20690;DHT22;10504;48.762;8.996;2022-08-19T03:04:01;18.90;99.90
20690;DHT22;10504;48.762;8.996;2022-08-19T03:06:28;18.80;99.90
20690;DHT22;10504;48.762;8.996;2022-08-19T03:08:53;18.90;99.90
20690;DHT22;10504;48.762;8.996;2022-08-19T03:11:29;18.80;99.90
20690;DHT22;10504;48.762;8.996;2022-08-19T03:13:55;18.80;99.90
20690;DHT22;10504;48.762;8.996;2022-08-19T03:16:23;18.80;99.90
20690;DHT22;10504;48.762;8.996;2022-08-19T03:18:50;18.80;99.90
20690;DHT22;10504;48.762;8.996;2022-08-19T03:21:21;18.80;99.90
20690;DHT22;10504;48.762;8.996;2022-08-19T03:23:49;18.80;99.90
20690;DHT22;10504;48.762;8.996;2022-08-19T03:26:16;18.80;99.90
20690;DHT22;10504;48.762;8.996;2022-08-19T03:28:43;18.80;99.90
20690;DHT22;10504;48.762;8.996;2022-08-19T03:31:13;18.80;99.90
20690;DHT22;10504;48.762;8.996;2022-08-19T03:33:39;18.80;99.90
20690;DHT22;10504;48.762;8.996;2022-08-19T03:36:12;18.80;99.90
20690;DHT22;10504;48.762;8.996;2022-08-19T03:38:41;18.80;99.90
20690;DHT22;10504;48.762;8.996;2022-08-19T03:41:09;18.80;99.90
20690;DHT22;10504;48.762;8.996;2022-08-19T03:43:39;18.80;99.90
20690;DHT22;10504;48.762;8.996;2022-08-19T03:46:08;18.80;99.90
20690;DHT22;10504;48.762;8.996;2022-08-19T03:48:35;18.70;99.90
20690;DHT22;10504;48.762;8.996;2022-08-19T03:51:02;18.70;99.90
20690;DHT22;10504;48.762;8.996;2022-08-19T03:53:29;18.80;99.90
20690;DHT22;10504;48.762;8.996;2022-08-19T03:55:55;18.80;99.90
20690;DHT22;10504;48.762;8.996;2022-08-19T03:58:22;18.70;99.90
20690;DHT22;10504;48.762;8.996;2022-08-19T04:00:48;18.70;99.90
20690;DHT22;10504;48.762;8.996;2022-08-19T04:03:15;18.70;99.90
20690;DHT22;10504;48.762;8.996;2022-08-19T04:05:40;18.70;99.90
20690;DHT22;10504;48.762;8.996;2022-08-19T04:08:06;18.70;99.90
20690;DHT22;10504;48.762;8.996;2022-08-19T04:10:38;18.70;99.90
20690;DHT22;10504;48.762;8.996;2022-08-19T04:13:05;18.60;99.90
20690;DHT22;10504;48.762;8.996;2022-08-19T04:15:32;18.60;99.90
20690;DHT22;10504;48.762;8.996;2022-08-19T04:18:04;18.60;99.90
20690;DHT22;10504;48.762;8.996;2022-08-19T04:20:38;18.60;99.90
20690;DHT22;10504;48.762;8.996;2022-08-19T04:23:04;18.70;99.90
20690;DHT22;10504;48.762;8.996;2022-08-19T04:25:35;18.70;99.90
20690;DHT22;10504;48.762;8.996;2022-08-19T04:28:01;18.60;99.90
20690;DHT22;10504;48.762;8.996;2022-08-19T04:30:27;18.60;99.90
20690;DHT22;10504;48.762;8.996;2022-08-19T04:32:52;18.60;99.90
20690;DHT22;10504;48.762;8.996;2022-08-19T04:35:18;18.70;99.90
20690;DHT22;10504;48.762;8.996;2022-08-19T04:37:43;18.70;99.90
20690;DHT22;10504;48.762;8.996;2022-08-19T04:40:09;18.70;99.90
20690;DHT22;10504;48.762;8.996;2022-08-19T04:43:10;18.70;99.90
20690;DHT22;10504;48.762;8.996;2022-08-19T04:45:42;18.70;99.90
20690;DHT22;10504;48.762;8.996;2022-08-19T04:48:09;18.70;99.90
20690;DHT22;10504;48.762;8.996;2022-08-19T04:50:35;18.70;99.90
20690;DHT22;10504;48.762;8.996;2022-08-19T04:53:01;18.60;99.90
20690;DHT22;10504;48.762;8.996;2022-08-19T04:55:27;18.70;99.90
20690;DHT22;10504;48.762;8.996;2022-08-19T04:57:53;18.60;99.90
20690;DHT22;10504;48.762;8.996;2022-08-19T05:00:19;18.60;99.90
20690;DHT22;10504;48.762;8.996;2022-08-19T05:02:45;18.60;99.90
20690;DHT22;10504;48.762;8.996;2022-08-19T05:05:11;18.60;99.90
20690;DHT22;10504;48.762;8.996;2022-08-19T05:07:37;18.70;99.90
20690;DHT22;10504;48.762;8.996;2022-08-19T05:10:05;18.60;99.90
20690;DHT22;10504;48.762;8.996;2022-08-19T05:12:31;18.60;99.90
20690;DHT22;10504;48.762;8.996;2022-08-19T05:14:57;18.60;99.90
20690;DHT22;10504;48.762;8.996;2022-08-19T05:17:24;18.60;99.90
20690;DHT22;10504;48.762;8.996;2022-08-19T05:19:50;18.60;99.90
20690;DHT22;10504;48.762;8.996;2022-08-19T05:22:34;18.70;99.90
20690;DHT22;10504;48.762;8.996;2022-08-19T05:25:10;18.70;99.90
20690;DHT22;10504;48.762;8.996;2022-08-19T05:27:37;18.70;99.90
20690;DHT22;10504;48.762;8.996;2022-08-19T05:30:04;18.80;99.90
20690;DHT22;10504;48.762;8.996;2022-08-19T05:32:30;18.70;99.90
20690;DHT22;10504;48.762;8.996;2022-08-19T05:34:56;18.70;99.90
20690;DHT22;10504;48.762;8.996;2022-08-19T05:37:22;18.70;99.90
20690;DHT22;10504;48.762;8.996;2022-08-19T05:39:48;18.70;99.90
20690;DHT22;10504;48.762;8.996;2022-08-19T05:42:15;18.80;99.90
20690;DHT22;10504;48.762;8.996;2022-08-19T05:44:42;18.70;99.90
20690;DHT22;10504;48.762;8.996;2022-08-19T05:47:10;18.70;99.90
20690;DHT22;10504;48.762;8.996;2022-08-19T05:49:37;18.80;99.90
20690;DHT22;10504;48.762;8.996;2022-08-19T05:52:11;18.70;99.90
20690;DHT22;10504;48.762;8.996;2022-08-19T05:54:39;18.70;99.90
20690;DHT22;10504;48.762;8.996;2022-08-19T05:57:07;18.80;99.90
20690;DHT22;10504;48.762;8.996;2022-08-19T05:59:33;18.80;99.90
20690;DHT22;10504;48.762;8.996;2022-08-19T06:02:02;18.80;99.90
20690;DHT22;10504;48.762;8.996;2022-08-19T06:04:28;18.80;99.90
20690;DHT22;10504;48.762;8.996;2022-08-19T06:06:54;18.80;99.90
20690;DHT22;10504;48.762;8.996;2022-08-19T06:09:21;18.80;99.90
20690;DHT22;10504;48.762;8.996;2022-08-19T06:11:56;18.80;99.90
20690;DHT22;10504;48.762;8.996;2022-08-19T06:14:29;18.80;99.90
20690;DHT22;10504;48.762;8.996;2022-08-19T06:16:56;18.80;99.90
20690;DHT22;10504;48.762;8.996;2022-08-19T06:19:23;18.80;99.90
20690;DHT22;10504;48.762;8.996;2022-08-19T06:21:51;18.70;99.90
20690;DHT22;10504;48.762;8.996;2022-08-19T06:24:19;18.80;99.90
20690;DHT22;10504;48.762;8.996;2022-08-19T06:26:47;18.80;99.90
20690;DHT22;10504;48.762;8.996;2022-08-19T06:29:15;18.80;99.90
20690;DHT22;10504;48.762;8.996;2022-08-19T06:31:47;18.80;99.90
20690;DHT22;10504;48.762;8.996;2022-08-19T06:34:15;18.80;99.90
20690;DHT22;10504;48.762;8.996;2022-08-19T06:36:44;18.80;99.90
20690;DHT22;10504;48.762;8.996;2022-08-19T06:39:12;18.80;99.90
20690;DHT22;10504;48.762;8.996;2022-08-19T06:41:41;18.80;99.90
20690;DHT22;10504;48.762;8.996;2022-08-19T06:44:07;18.80;99.90
20690;DHT22;10504;48.762;8.996;2022-08-19T06:46:33;18.80;99.90
20690;DHT22;10504;48.762;8.996;2022-08-19T06:48:59;18.80;99.90
20690;DHT22;10504;48.762;8.996;2022-08-19T06:51:26;18.80;99.90
20690;DHT22;10504;48.762;8.996;2022-08-19T06:53:53;18.80;99.90
20690;DHT22;10504;48.762;8.996;2022-08-19T06:56:22;18.80;99.90
20690;DHT22;10504;48.762;8.996;2022-08-19T06:58:50;18.80;99.90
20690;DHT22;10504;48.762;8.996;2022-08-19T07:01:18;18.90;99.90
20690;DHT22;10504;48.762;8.996;2022-08-19T07:03:44;18.90;99.90
20690;DHT22;10504;48.762;8.996;2022-08-19T07:06:15;18.90;99.90
20690;DHT22;10504;48.762;8.996;2022-08-19T07:08:43;18.90;99.90
20690;DHT22;10504;48.762;8.996;2022-08-19T07:11:11;18.90;99.90
20690;DHT22;10504;48.762;8.996;2022-08-19T07:13:38;18.90;99.90
20690;DHT22;10504;48.762;8.996;2022-08-19T07:16:13;19.00;99.90
20690;DHT22;10504;48.762;8.996;2022-08-19T07:18:39;19.00;99.90
20690;DHT22;10504;48.762;8.996;2022-08-19T07:21:08;19.10;99.90
20690;DHT22;10504;48.762;8.996;2022-08-19T07:23:34;19.10;99.90
20690;DHT22;10504;48.762;8.996;2022-08-19T07:28:32;19.10;99.90
20690;DHT22;10504;48.762;8.996;2022-08-19T07:30:58;19.10;99.90
20690;DHT22;10504;48.762;8.996;2022-08-19T07:33:23;19.10;99.90
20690;DHT22;10504;48.762;8.996;2022-08-19T07:35:49;19.10;99.90
20690;DHT22;10504;48.762;8.996;2022-08-19T07:38:15;19.10;99.90
20690;DHT22;10504;48.762;8.996;2022-08-19T07:40:42;19.10;99.90
20690;DHT22;10504;48.762;8.996;2022-08-19T07:43:11;19.10;99.90
20690;DHT22;10504;48.762;8.996;2022-08-19T07:45:36;19.20;99.90
20690;DHT22;10504;48.762;8.996;2022-08-19T07:48:02;19.10;99.90
20690;DHT22;10504;48.762;8.996;2022-08-19T07:50:29;19.10;99.90
20690;DHT22;10504;48.762;8.996;2022-08-19T07:52:55;19.20;99.90
20690;DHT22;10504;48.762;8.996;2022-08-19T07:55:24;19.20;99.90
20690;DHT22;10504;48.762;8.996;2022-08-19T07:57:49;19.20;99.90
20690;DHT22;10504;48.762;8.996;2022-08-19T08:00:17;19.20;99.90
20690;DHT22;10504;48.762;8.996;2022-08-19T08:02:43;19.20;99.90
20690;DHT22;10504;48.762;8.996;2022-08-19T08:05:10;19.10;99.90
20690;DHT22;10504;48.762;8.996;2022-08-19T08:07:54;19.10;99.90
20690;DHT22;10504;48.762;8.996;2022-08-19T08:10:39;19.10;99.90
20690;DHT22;10504;48.762;8.996;2022-08-19T08:13:05;19.10;99.90
20690;DHT22;10504;48.762;8.996;2022-08-19T08:15:31;19.10;99.90
20690;DHT22;10504;48.762;8.996;2022-08-19T08:17:57;19.10;99.90
20690;DHT22;10504;48.762;8.996;2022-08-19T08:20:24;19.10;99.90
20690;DHT22;10504;48.762;8.996;2022-08-19T08:22:49;19.10;99.90
20690;DHT22;10504;48.762;8.996;2022-08-19T08:25:35;19.10;99.90
20690;DHT22;10504;48.762;8.996;2022-08-19T08:28:01;19.10;99.90
20690;DHT22;10504;48.762;8.996;2022-08-19T08:30:29;19.10;99.90
20690;DHT22;10504;48.762;8.996;2022-08-19T08:32:55;19.10;99.90
20690;DHT22;10504;48.762;8.996;2022-08-19T08:35:23;19.10;99.90
20690;DHT22;10504;48.762;8.996;2022-08-19T08:37:51;19.10;99.90
20690;DHT22;10504;48.762;8.996;2022-08-19T08:40:29;19.00;99.90
20690;DHT22;10504;48.762;8.996;2022-08-19T08:43:07;19.00;99.90
20690;DHT22;10504;48.762;8.996;2022-08-19T08:45:38;18.90;99.90
20690;DHT22;10504;48.762;8.996;2022-08-19T08:48:13;18.90;99.90
20690;DHT22;10504;48.762;8.996;2022-08-19T08:50:42;19.00;99.90
20690;DHT22;10504;48.762;8.996;2022-08-19T08:53:10;19.00;99.90
20690;DHT22;10504;48.762;8.996;2022-08-19T08:55:37;19.10;99.90
20690;DHT22;10504;48.762;8.996;2022-08-19T08:58:27;19.10;99.90
20690;DHT22;10504;48.762;8.996;2022-08-19T09:00:56;19.10;99.90
20690;DHT22;10504;48.762;8.996;2022-08-19T09:03:26;19.10;99.90
20690;DHT22;10504;48.762;8.996;2022-08-19T09:06:14;19.20;99.90
20690;DHT22;10504;48.762;8.996;2022-08-19T09:09:05;19.20;99.90
20690;DHT22;10504;48.762;8.996;2022-08-19T09:17:11;19.30;99.90
20690;DHT22;10504;48.762;8.996;2022-08-19T09:20:34;19.40;99.90
20690;DHT22;10504;48.762;8.996;2022-08-19T09:22:37;19.50;99.90
20690;DHT22;10504;48.762;8.996;2022-08-19T09:25:03;19.50;99.90
20690;DHT22;10504;48.762;8.996;2022-08-19T09:27:31;19.60;99.90
20690;DHT22;10504;48.762;8.996;2022-08-19T09:29:57;19.50;99.90
20690;DHT22;10504;48.762;8.996;2022-08-19T09:32:24;19.50;99.90
20690;DHT22;10504;48.762;8.996;2022-08-19T09:34:51;19.50;99.90
20690;DHT22;10504;48.762;8.996;2022-08-19T09:37:20;19.50;99.90
20690;DHT22;10504;48.762;8.996;2022-08-19T09:39:45;19.50;99.90
20690;DHT22;10504;48.762;8.996;2022-08-19T09:42:11;19.50;99.90
20690;DHT22;10504;48.762;8.996;2022-08-19T09:44:40;19.50;99.90
20690;DHT22;10504;48.762;8.996;2022-08-19T09:47:06;19.60;99.90
20690;DHT22;10504;48.762;8.996;2022-08-19T09:49:33;19.60;99.90
20690;DHT22;10504;48.762;8.996;2022-08-19T09:51:59;19.70;99.90
20690;DHT22;10504;48.762;8.996;2022-08-19T09:54:25;19.80;99.90
20690;DHT22;10504;48.762;8.996;2022-08-19T09:56:55;19.80;99.90
20690;DHT22;10504;48.762;8.996;2022-08-19T09:59:21;19.80;99.90
20690;DHT22;10504;48.762;8.996;2022-08-19T10:01:47;19.80;99.90
20690;DHT22;10504;48.762;8.996;2022-08-19T10:04:12;19.80;99.90
20690;DHT22;10504;48.762;8.996;2022-08-19T10:06:39;19.80;99.90
20690;DHT22;10504;48.762;8.996;2022-08-19T10:09:07;19.80;99.90
20690;DHT22;10504;48.762;8.996;2022-08-19T10:11:34;19.80;99.90
20690;DHT22;10504;48.762;8.996;2022-08-19T10:14:00;19.80;99.90
20690;DHT22;10504;48.762;8.996;2022-08-19T10:16:26;19.80;99.90
20690;DHT22;10504;48.762;8.996;2022-08-19T10:18:53;19.80;99.90
20690;DHT22;10504;48.762;8.996;2022-08-19T10:21:22;19.80;99.90
20690;DHT22;10504;48.762;8.996;2022-08-19T10:23:50;19.80;99.90
20690;DHT22;10504;48.762;8.996;2022-08-19T10:26:18;19.80;99.90
20690;DHT22;10504;48.762;8.996;2022-08-19T10:28:45;19.80;99.90
20690;DHT22;10504;48.762;8.996;2022-08-19T10:31:13;19.80;99.90
20690;DHT22;10504;48.762;8.996;2022-08-19T10:33:40;19.80;99.90
20690;DHT22;10504;48.762;8.996;2022-08-19T10:36:13;19.80;99.90
20690;DHT22;10504;48.762;8.996;2022-08-19T10:38:47;19.80;99.90
20690;DHT22;10504;48.762;8.996;2022-08-19T10:41:20;19.80;99.90
20690;DHT22;10504;48.762;8.996;2022-08-19T10:43:51;19.80;99.90
20690;DHT22;10504;48.762;8.996;2022-08-19T10:46:18;19.80;99.90
20690;DHT22;10504;48.762;8.996;2022-08-19T10:48:44;19.90;99.90
20690;DHT22;10504;48.762;8.996;2022-08-19T10:51:11;20.00;99.90
20690;DHT22;10504;48.762;8.996;2022-08-19T10:53:56;20.10;99.90
20690;DHT22;10504;48.762;8.996;2022-08-19T10:56:22;20.30;99.90
20690;DHT22;10504;48.762;8.996;2022-08-19T10:59:06;20.40;99.90
20690;DHT22;10504;48.762;8.996;2022-08-19T11:01:33;20.50;99.90
20690;DHT22;10504;48.762;8.996;2022-08-19T11:04:01;20.60;99.90
20690;DHT22;10504;48.762;8.996;2022-08-19T11:06:27;20.70;99.90
20690;DHT22;10504;48.762;8.996;2022-08-19T11:08:54;20.80;99.90
20690;DHT22;10504;48.762;8.996;2022-08-19T11:11:20;20.80;99.90
20690;DHT22;10504;48.762;8.996;2022-08-19T11:13:49;20.80;99.90
20690;DHT22;10504;48.762;8.996;2022-08-19T11:16:20;20.70;99.90
20690;DHT22;10504;48.762;8.996;2022-08-19T11:18:52;20.70;99.90
20690;DHT22;10504;48.762;8.996;2022-08-19T11:21:24;20.70;99.90
20690;DHT22;10504;48.762;8.996;2022-08-19T11:23:53;20.70;99.90
20690;DHT22;10504;48.762;8.996;2022-08-19T11:26:20;20.60;99.90
20690;DHT22;10504;48.762;8.996;2022-08-19T11:28:46;20.60;99.90
20690;DHT22;10504;48.762;8.996;2022-08-19T11:31:15;20.70;99.90
20690;DHT22;10504;48.762;8.996;2022-08-19T11:33:41;20.80;99.90
20690;DHT22;10504;48.762;8.996;2022-08-19T11:36:07;20.80;99.90
20690;DHT22;10504;48.762;8.996;2022-08-19T11:38:34;20.80;99.90
20690;DHT22;10504;48.762;8.996;2022-08-19T11:41:03;20.80;99.90
20690;DHT22;10504;48.762;8.996;2022-08-19T11:43:29;20.80;99.90
20690;DHT22;10504;48.762;8.996;2022-08-19T11:45:56;20.80;99.90
20690;DHT22;10504;48.762;8.996;2022-08-19T11:48:23;20.80;99.90
20690;DHT22;10504;48.762;8.996;2022-08-19T11:50:53;20.80;99.90
20690;DHT22;10504;48.762;8.996;2022-08-19T11:53:22;20.80;99.90
20690;DHT22;10504;48.762;8.996;2022-08-19T11:55:48;20.80;99.90
20690;DHT22;10504;48.762;8.996;2022-08-19T11:58:16;20.70;99.90
20690;DHT22;10504;48.762;8.996;2022-08-19T12:00:43;20.70;99.90
20690;DHT22;10504;48.762;8.996;2022-08-19T12:03:11;20.80;99.90
20690;DHT22;10504;48.762;8.996;2022-08-19T12:05:37;20.80;99.90
20690;DHT22;10504;48.762;8.996;2022-08-19T12:08:04;20.90;99.90
20690;DHT22;10504;48.762;8.996;2022-08-19T12:10:29;20.90;99.90
20690;DHT22;10504;48.762;8.996;2022-08-19T12:12:55;21.00;99.90
20690;DHT22;10504;48.762;8.996;2022-08-19T12:15:21;21.10;99.90
20690;DHT22;10504;48.762;8.996;2022-08-19T12:17:47;21.20;99.90
20690;DHT22;10504;48.762;8.996;2022-08-19T12:20:13;21.30;99.90
20690;DHT22;10504;48.762;8.996;2022-08-19T12:22:41;21.30;99.90
20690;DHT22;10504;48.762;8.996;2022-08-19T12:25:09;21.30;99.90
20690;DHT22;10504;48.762;8.996;2022-08-19T12:27:36;21.40;99.90
20690;DHT22;10504;48.762;8.996;2022-08-19T12:30:03;21.50;99.90
20690;DHT22;10504;48.762;8.996;2022-08-19T12:32:29;21.60;99.90
20690;DHT22;10504;48.762;8.996;2022-08-19T12:34:55;21.70;99.90
20690;DHT22;10504;48.762;8.996;2022-08-19T12:37:21;21.80;99.90
20690;DHT22;10504;48.762;8.996;2022-08-19T12:39:46;21.80;99.90
20690;DHT22;10504;48.762;8.996;2022-08-19T12:42:13;21.90;99.90
20690;DHT22;10504;48.762;8.996;2022-08-19T12:44:42;21.90;99.90
20690;DHT22;10504;48.762;8.996;2022-08-19T12:47:09;21.90;99.90
20690;DHT22;10504;48.762;8.996;2022-08-19T12:49:36;22.00;99.90
20690;DHT22;10504;48.762;8.996;2022-08-19T12:52:04;21.90;99.90
20690;DHT22;10504;48.762;8.996;2022-08-19T12:54:30;21.90;99.90
20690;DHT22;10504;48.762;8.996;2022-08-19T12:56:57;21.90;99.90
20690;DHT22;10504;48.762;8.996;2022-08-19T12:59:23;21.90;99.90
20690;DHT22;10504;48.762;8.996;2022-08-19T13:01:49;21.90;99.90
20690;DHT22;10504;48.762;8.996;2022-08-19T13:04:14;21.90;99.90
20690;DHT22;10504;48.762;8.996;2022-08-19T13:06:41;22.00;99.90
20690;DHT22;10504;48.762;8.996;2022-08-19T13:09:08;22.20;99.90
20690;DHT22;10504;48.762;8.996;2022-08-19T13:11:34;22.20;99.90
20690;DHT22;10504;48.762;8.996;2022-08-19T13:14:01;22.10;99.90
20690;DHT22;10504;48.762;8.996;2022-08-19T13:16:27;22.10;99.90
20690;DHT22;10504;48.762;8.996;2022-08-19T13:18:54;22.10;99.90
20690;DHT22;10504;48.762;8.996;2022-08-19T13:21:22;22.10;99.90
20690;DHT22;10504;48.762;8.996;2022-08-19T13:23:48;22.20;99.90
20690;DHT22;10504;48.762;8.996;2022-08-19T13:26:15;22.20;99.90
20690;DHT22;10504;48.762;8.996;2022-08-19T13:28:42;22.20;99.90
20690;DHT22;10504;48.762;8.996;2022-08-19T13:31:29;22.10;99.90
20690;DHT22;10504;48.762;8.996;2022-08-19T13:34:14;22.10;99.90
20690;DHT22;10504;48.762;8.996;2022-08-19T13:36:40;22.00;99.90
20690;DHT22;10504;48.762;8.996;2022-08-19T13:39:07;22.00;99.90
20690;DHT22;10504;48.762;8.996;2022-08-19T13:41:34;22.10;99.90
20690;DHT22;10504;48.762;8.996;2022-08-19T13:44:00;22.10;99.90
20690;DHT22;10504;48.762;8.996;2022-08-19T13:46:27;22.10;99.90
20690;DHT22;10504;48.762;8.996;2022-08-19T13:48:55;22.20;99.90
20690;DHT22;10504;48.762;8.996;2022-08-19T13:51:22;22.10;99.90
20690;DHT22;10504;48.762;8.996;2022-08-19T13:53:48;22.20;99.90
20690;DHT22;10504;48.762;8.996;2022-08-19T13:56:16;22.20;99.90
20690;DHT22;10504;48.762;8.996;2022-08-19T13:58:42;22.20;99.90
20690;DHT22;10504;48.762;8.996;2022-08-19T14:01:08;22.20;99.90
20690;DHT22;10504;48.762;8.996;2022-08-19T14:03:35;22.20;99.90
20690;DHT22;10504;48.762;8.996;2022-08-19T14:06:01;22.30;99.90
20690;DHT22;10504;48.762;8.996;2022-08-19T14:08:27;22.30;99.90
20690;DHT22;10504;48.762;8.996;2022-08-19T14:10:54;22.50;99.90
20690;DHT22;10504;48.762;8.996;2022-08-19T14:13:21;22.50;99.90
20690;DHT22;10504;48.762;8.996;2022-08-19T14:15:48;22.40;99.90
20690;DHT22;10504;48.762;8.996;2022-08-19T14:18:15;22.40;99.90
20690;DHT22;10504;48.762;8.996;2022-08-19T14:20:41;22.40;99.90
20690;DHT22;10504;48.762;8.996;2022-08-19T14:23:07;22.40;99.90
20690;DHT22;10504;48.762;8.996;2022-08-19T14:25:33;22.30;99.90
20690;DHT22;10504;48.762;8.996;2022-08-19T14:28:00;22.20;99.90
20690;DHT22;10504;48.762;8.996;2022-08-19T14:30:31;22.20;99.90
20690;DHT22;10504;48.762;8.996;2022-08-19T14:32:58;22.10;99.90
20690;DHT22;10504;48.762;8.996;2022-08-19T14:35:26;22.10;99.90
20690;DHT22;10504;48.762;8.996;2022-08-19T14:37:52;22.10;99.90
20690;DHT22;10504;48.762;8.996;2022-08-19T14:40:26;22.30;99.90
20690;DHT22;10504;48.762;8.996;2022-08-19T14:43:03;22.40;99.90
20690;DHT22;10504;48.762;8.996;2022-08-19T14:45:35;22.50;99.90
20690;DHT22;10504;48.762;8.996;2022-08-19T14:48:01;22.70;99.90
20690;DHT22;10504;48.762;8.996;2022-08-19T14:50:27;22.80;99.90
20690;DHT22;10504;48.762;8.996;2022-08-19T14:53:02;23.00;99.90
20690;DHT22;10504;48.762;8.996;2022-08-19T14:55:29;22.80;99.90
20690;DHT22;10504;48.762;8.996;2022-08-19T14:57:55;22.80;99.90
20690;DHT22;10504;48.762;8.996;2022-08-19T15:00:21;22.80;99.90
20690;DHT22;10504;48.762;8.996;2022-08-19T15:02:48;22.70;99.90
20690;DHT22;10504;48.762;8.996;2022-08-19T15:05:14;22.60;99.90
20690;DHT22;10504;48.762;8.996;2022-08-19T15:07:40;22.60;99.90
20690;DHT22;10504;48.762;8.996;2022-08-19T15:10:07;22.60;99.90
20690;DHT22;10504;48.762;8.996;2022-08-19T15:12:34;22.70;99.90
20690;DHT22;10504;48.762;8.996;2022-08-19T15:15:00;22.80;99.90
20690;DHT22;10504;48.762;8.996;2022-08-19T15:17:26;23.00;99.90
20690;DHT22;10504;48.762;8.996;2022-08-19T15:19:52;23.10;99.90
20690;DHT22;10504;48.762;8.996;2022-08-19T15:22:18;23.40;99.90
20690;DHT22;10504;48.762;8.996;2022-08-19T15:24:43;23.70;99.90
20690;DHT22;10504;48.762;8.996;2022-08-19T15:27:12;23.80;99.90
20690;DHT22;10504;48.762;8.996;2022-08-19T15:29:43;23.90;99.90
20690;DHT22;10504;48.762;8.996;2022-08-19T15:32:10;24.00;99.90
20690;DHT22;10504;48.762;8.996;2022-08-19T15:34:36;24.20;99.90
20690;DHT22;10504;48.762;8.996;2022-08-19T15:37:01;24.30;99.90
20690;DHT22;10504;48.762;8.996;2022-08-19T15:39:30;24.20;99.90
20690;DHT22;10504;48.762;8.996;2022-08-19T15:41:56;24.30;99.90
20690;DHT22;10504;48.762;8.996;2022-08-19T15:44:22;24.30;99.90